sensor_id;sensor_type;location;lat;lon;timestamp;P1;durP1;ratioP1;P2;durP2;ratioP2
35223;SDS011;21367;51.930;8.112;2023-11-19T00:04:48;5.25;;;2.75;;
35223;SDS011;21367;51.930;8.112;2023-11-19T00:09:54;8.27;;;3.20;;
35223;SDS011;21367;51.930;8.112;2023-11-19T00:20:01;10.98;;;3.70;;
35223;SDS011;21367;51.930;8.112;2023-11-19T00:25:09;16.00;;;4.43;;
35223;SDS011;21367;51.930;8.112;2023-11-19T00:30:15;11.43;;;3.85;;
35223;SDS011;21367;51.930;8.112;2023-11-19T00:35:19;12.23;;;4.30;;
35223;SDS011;21367;51.930;8.112;2023-11-19T00:40:25;11.75;;;3.38;;
35223;SDS011;21367;51.930;8.112;2023-11-19T00:50:32;12.63;;;3.33;;
35223;SDS011;21367;51.930;8.112;2023-11-19T00:55:39;5.13;;;3.50;;
35223;SDS011;21367;51.930;8.112;2023-11-19T01:00:42;6.35;;;3.65;;
35223;SDS011;21367;51.930;8.112;2023-11-19T01:05:46;10.68;;;4.70;;
35223;SDS011;21367;51.930;8.112;2023-11-19T01:10:52;7.28;;;4.68;;
35223;SDS011;21367;51.930;8.112;2023-11-19T01:21:00;13.00;;;5.88;;
35223;SDS011;21367;51.930;8.112;2023-11-19T01:26:06;13.30;;;6.43;;
35223;SDS011;21367;51.930;8.112;2023-11-19T01:31:12;11.25;;;6.68;;
35223;SDS011;21367;51.930;8.112;2023-11-19T01:36:18;8.68;;;6.32;;
35223;SDS011;21367;51.930;8.112;2023-11-19T01:41:25;8.57;;;6.13;;
35223;SDS011;21367;51.930;8.112;2023-11-19T01:51:33;13.02;;;6.05;;
35223;SDS011;21367;51.930;8.112;2023-11-19T01:56:39;14.23;;;6.90;;
35223;SDS011;21367;51.930;8.112;2023-11-19T02:01:44;13.52;;;7.07;;
35223;SDS011;21367;51.930;8.112;2023-11-19T02:06:58;17.83;;;7.07;;
35223;SDS011;21367;51.930;8.112;2023-11-19T02:12:21;14.02;;;7.55;;
35223;SDS011;21367;51.930;8.112;2023-11-19T02:18:24;14.65;;;8.80;;
35223;SDS011;21367;51.930;8.112;2023-11-19T02:23:38;17.42;;;10.45;;
35223;SDS011;21367;51.930;8.112;2023-11-19T02:29:44;17.70;;;12.30;;
35223;SDS011;21367;51.930;8.112;2023-11-19T02:35:46;23.33;;;14.57;;
35223;SDS011;21367;51.930;8.112;2023-11-19T02:41:08;28.17;;;14.55;;
35223;SDS011;21367;51.930;8.112;2023-11-19T02:47:14;24.92;;;16.17;;
35223;SDS011;21367;51.930;8.112;2023-11-19T02:53:17;29.73;;;16.02;;
35223;SDS011;21367;51.930;8.112;2023-11-19T02:59:20;31.92;;;18.15;;
35223;SDS011;21367;51.930;8.112;2023-11-19T03:05:26;27.95;;;16.10;;
35223;SDS011;21367;51.930;8.112;2023-11-19T03:11:29;34.67;;;16.85;;
35223;SDS011;21367;51.930;8.112;2023-11-19T03:17:31;29.75;;;15.98;;
35223;SDS011;21367;51.930;8.112;2023-11-19T03:23:35;29.63;;;14.38;;
35223;SDS011;21367;51.930;8.112;2023-11-19T03:29:39;30.27;;;15.88;;
35223;SDS011;21367;51.930;8.112;2023-11-19T03:35:42;29.15;;;13.05;;
35223;SDS011;21367;51.930;8.112;2023-11-19T03:41:47;25.65;;;12.80;;
35223;SDS011;21367;51.930;8.112;2023-11-19T03:47:50;18.10;;;9.98;;
35223;SDS011;21367;51.930;8.112;2023-11-19T03:53:52;21.55;;;9.98;;
35223;SDS011;21367;51.930;8.112;2023-11-19T03:59:58;23.02;;;9.55;;
35223;SDS011;21367;51.930;8.112;2023-11-19T04:06:01;18.08;;;7.25;;
35223;SDS011;21367;51.930;8.112;2023-11-19T04:12:04;28.30;;;6.88;;
35223;SDS011;21367;51.930;8.112;2023-11-19T04:18:09;33.05;;;5.93;;
35223;SDS011;21367;51.930;8.112;2023-11-19T04:24:11;24.67;;;5.50;;
35223;SDS011;21367;51.930;8.112;2023-11-19T04:30:15;27.42;;;5.22;;
35223;SDS011;21367;51.930;8.112;2023-11-19T04:36:21;33.92;;;4.93;;
35223;SDS011;21367;51.930;8.112;2023-11-19T04:42:22;30.35;;;4.35;;
35223;SDS011;21367;51.930;8.112;2023-11-19T04:48:24;34.60;;;4.80;;
35223;SDS011;21367;51.930;8.112;2023-11-19T04:53:40;29.20;;;4.15;;
35223;SDS011;21367;51.930;8.112;2023-11-19T05:03:47;23.40;;;3.40;;
35223;SDS011;21367;51.930;8.112;2023-11-19T05:09:52;24.08;;;3.55;;
35223;SDS011;21367;51.930;8.112;2023-11-19T05:15:54;23.05;;;4.20;;
35223;SDS011;21367;51.930;8.112;2023-11-19T05:21:56;29.15;;;4.63;;
35223;SDS011;21367;51.930;8.112;2023-11-19T05:27:56;46.88;;;5.70;;
35223;SDS011;21367;51.930;8.112;2023-11-19T05:33:58;33.67;;;4.10;;
35223;SDS011;21367;51.930;8.112;2023-11-19T05:40:00;32.38;;;4.97;;
35223;SDS011;21367;51.930;8.112;2023-11-19T05:46:06;27.83;;;3.83;;
35223;SDS011;21367;51.930;8.112;2023-11-19T05:51:56;25.70;;;4.20;;
35223;SDS011;21367;51.930;8.112;2023-11-19T05:57:59;39.42;;;5.47;;
35223;SDS011;21367;51.930;8.112;2023-11-19T06:04:04;35.55;;;4.90;;
35223;SDS011;21367;51.930;8.112;2023-11-19T06:10:07;33.00;;;5.00;;
35223;SDS011;21367;51.930;8.112;2023-11-19T06:16:13;36.60;;;5.85;;
35223;SDS011;21367;51.930;8.112;2023-11-19T06:22:20;40.53;;;5.82;;
35223;SDS011;21367;51.930;8.112;2023-11-19T06:28:23;31.70;;;4.85;;
35223;SDS011;21367;51.930;8.112;2023-11-19T06:34:25;39.58;;;5.55;;
35223;SDS011;21367;51.930;8.112;2023-11-19T06:39:48;53.35;;;5.60;;
35223;SDS011;21367;51.930;8.112;2023-11-19T06:45:51;58.03;;;6.10;;
35223;SDS011;21367;51.930;8.112;2023-11-19T06:51:54;46.35;;;5.47;;
35223;SDS011;21367;51.930;8.112;2023-11-19T06:57:59;34.40;;;4.95;;
35223;SDS011;21367;51.930;8.112;2023-11-19T07:04:01;44.65;;;5.80;;
35223;SDS011;21367;51.930;8.112;2023-11-19T07:10:05;45.97;;;5.72;;
35223;SDS011;21367;51.930;8.112;2023-11-19T07:16:13;48.80;;;5.43;;
35223;SDS011;21367;51.930;8.112;2023-11-19T07:22:15;45.22;;;5.57;;
35223;SDS011;21367;51.930;8.112;2023-11-19T07:28:17;69.72;;;7.22;;
35223;SDS011;21367;51.930;8.112;2023-11-19T07:34:22;45.53;;;5.88;;
35223;SDS011;21367;51.930;8.112;2023-11-19T07:40:25;53.47;;;5.78;;
35223;SDS011;21367;51.930;8.112;2023-11-19T07:46:27;59.00;;;5.82;;
35223;SDS011;21367;51.930;8.112;2023-11-19T07:52:32;62.97;;;7.90;;
35223;SDS011;21367;51.930;8.112;2023-11-19T07:58:35;57.95;;;7.13;;
35223;SDS011;21367;51.930;8.112;2023-11-19T08:04:37;48.38;;;6.30;;
35223;SDS011;21367;51.930;8.112;2023-11-19T08:10:42;52.63;;;6.07;;
35223;SDS011;21367;51.930;8.112;2023-11-19T08:16:45;49.35;;;5.78;;
35223;SDS011;21367;51.930;8.112;2023-11-19T08:22:47;49.58;;;5.45;;
35223;SDS011;21367;51.930;8.112;2023-11-19T08:28:26;48.43;;;5.37;;
35223;SDS011;21367;51.930;8.112;2023-11-19T08:33:31;47.10;;;7.05;;
35223;SDS011;21367;51.930;8.112;2023-11-19T08:38:36;44.97;;;5.93;;
35223;SDS011;21367;51.930;8.112;2023-11-19T08:43:42;55.80;;;6.57;;
35223;SDS011;21367;51.930;8.112;2023-11-19T08:48:45;36.58;;;5.93;;
35223;SDS011;21367;51.930;8.112;2023-11-19T08:53:50;47.33;;;5.88;;
35223;SDS011;21367;51.930;8.112;2023-11-19T08:58:56;46.65;;;6.82;;
35223;SDS011;21367;51.930;8.112;2023-11-19T09:04:01;42.50;;;6.38;;
35223;SDS011;21367;51.930;8.112;2023-11-19T09:09:05;48.20;;;6.18;;
35223;SDS011;21367;51.930;8.112;2023-11-19T09:14:11;43.30;;;6.43;;
35223;SDS011;21367;51.930;8.112;2023-11-19T09:24:18;47.88;;;5.97;;
35223;SDS011;21367;51.930;8.112;2023-11-19T09:29:24;46.88;;;4.82;;
35223;SDS011;21367;51.930;8.112;2023-11-19T09:39:32;57.50;;;5.15;;
35223;SDS011;21367;51.930;8.112;2023-11-19T09:44:38;54.88;;;7.13;;
35223;SDS011;21367;51.930;8.112;2023-11-19T09:54:46;61.17;;;6.95;;
35223;SDS011;21367;51.930;8.112;2023-11-19T09:59:52;66.65;;;7.95;;
35223;SDS011;21367;51.930;8.112;2023-11-19T10:04:58;52.28;;;8.20;;
35223;SDS011;21367;51.930;8.112;2023-11-19T10:10:04;51.38;;;5.60;;
35223;SDS011;21367;51.930;8.112;2023-11-19T10:15:16;42.55;;;5.00;;
35223;SDS011;21367;51.930;8.112;2023-11-19T10:20:24;53.38;;;6.60;;
35223;SDS011;21367;51.930;8.112;2023-11-19T10:26:28;54.95;;;6.50;;
35223;SDS011;21367;51.930;8.112;2023-11-19T10:32:33;56.70;;;6.95;;
35223;SDS011;21367;51.930;8.112;2023-11-19T10:37:37;63.88;;;7.05;;
35223;SDS011;21367;51.930;8.112;2023-11-19T10:42:41;63.53;;;6.93;;
35223;SDS011;21367;51.930;8.112;2023-11-19T10:47:47;50.50;;;6.60;;
35223;SDS011;21367;51.930;8.112;2023-11-19T10:52:52;62.42;;;7.20;;
35223;SDS011;21367;51.930;8.112;2023-11-19T10:59:01;39.83;;;5.45;;
35223;SDS011;21367;51.930;8.112;2023-11-19T11:05:15;56.75;;;6.32;;
35223;SDS011;21367;51.930;8.112;2023-11-19T11:15:59;58.13;;;6.80;;
35223;SDS011;21367;51.930;8.112;2023-11-19T11:21:09;47.22;;;5.45;;
35223;SDS011;21367;51.930;8.112;2023-11-19T11:26:26;42.13;;;5.72;;
35223;SDS011;21367;51.930;8.112;2023-11-19T11:31:48;43.25;;;6.15;;
35223;SDS011;21367;51.930;8.112;2023-11-19T11:37:06;53.38;;;7.18;;
35223;SDS011;21367;51.930;8.112;2023-11-19T11:53:24;54.90;;;6.88;;
35223;SDS011;21367;51.930;8.112;2023-11-19T11:58:30;54.40;;;6.40;;
35223;SDS011;21367;51.930;8.112;2023-11-19T12:03:36;54.15;;;5.35;;
35223;SDS011;21367;51.930;8.112;2023-11-19T12:08:43;42.03;;;5.22;;
35223;SDS011;21367;51.930;8.112;2023-11-19T12:13:54;43.95;;;5.22;;
35223;SDS011;21367;51.930;8.112;2023-11-19T12:19:03;40.72;;;4.47;;
35223;SDS011;21367;51.930;8.112;2023-11-19T12:24:11;41.03;;;4.97;;
35223;SDS011;21367;51.930;8.112;2023-11-19T12:29:15;48.17;;;5.47;;
35223;SDS011;21367;51.930;8.112;2023-11-19T12:34:19;40.33;;;4.88;;
35223;SDS011;21367;51.930;8.112;2023-11-19T12:39:26;62.70;;;6.78;;
35223;SDS011;21367;51.930;8.112;2023-11-19T12:44:32;36.35;;;5.53;;
35223;SDS011;21367;51.930;8.112;2023-11-19T12:49:36;48.42;;;5.45;;
35223;SDS011;21367;51.930;8.112;2023-11-19T12:54:43;38.15;;;4.75;;
35223;SDS011;21367;51.930;8.112;2023-11-19T12:59:56;55.50;;;5.25;;
35223;SDS011;21367;51.930;8.112;2023-11-19T13:05:05;40.28;;;6.30;;
35223;SDS011;21367;51.930;8.112;2023-11-19T13:10:28;49.15;;;6.38;;
35223;SDS011;21367;51.930;8.112;2023-11-19T13:15:32;40.58;;;5.72;;
35223;SDS011;21367;51.930;8.112;2023-11-19T13:20:36;49.83;;;6.75;;
35223;SDS011;21367;51.930;8.112;2023-11-19T13:25:42;39.63;;;5.18;;
35223;SDS011;21367;51.930;8.112;2023-11-19T13:30:46;52.67;;;6.45;;
35223;SDS011;21367;51.930;8.112;2023-11-19T13:35:50;43.72;;;5.50;;
35223;SDS011;21367;51.930;8.112;2023-11-19T13:40:56;38.92;;;4.85;;
35223;SDS011;21367;51.930;8.112;2023-11-19T13:46:00;48.03;;;5.75;;
35223;SDS011;21367;51.930;8.112;2023-11-19T13:51:04;44.03;;;5.22;;
35223;SDS011;21367;51.930;8.112;2023-11-19T13:56:12;38.25;;;4.22;;
35223;SDS011;21367;51.930;8.112;2023-11-19T14:01:16;39.72;;;4.72;;
35223;SDS011;21367;51.930;8.112;2023-11-19T14:06:20;45.83;;;4.47;;
35223;SDS011;21367;51.930;8.112;2023-11-19T14:11:27;38.42;;;4.82;;
35223;SDS011;21367;51.930;8.112;2023-11-19T14:21:34;27.30;;;4.20;;
35223;SDS011;21367;51.930;8.112;2023-11-19T14:26:41;31.83;;;3.75;;
35223;SDS011;21367;51.930;8.112;2023-11-19T14:36:48;38.65;;;3.67;;
35223;SDS011;21367;51.930;8.112;2023-11-19T14:41:54;27.35;;;3.45;;
35223;SDS011;21367;51.930;8.112;2023-11-19T14:46:58;27.27;;;4.18;;
35223;SDS011;21367;51.930;8.112;2023-11-19T14:52:02;25.77;;;3.75;;
35223;SDS011;21367;51.930;8.112;2023-11-19T14:57:09;38.53;;;4.90;;
35223;SDS011;21367;51.930;8.112;2023-11-19T15:02:14;38.33;;;4.63;;
35223;SDS011;21367;51.930;8.112;2023-11-19T15:07:18;35.97;;;4.20;;
35223;SDS011;21367;51.930;8.112;2023-11-19T15:12:25;34.83;;;4.00;;
35223;SDS011;21367;51.930;8.112;2023-11-19T15:22:32;29.80;;;3.65;;
35223;SDS011;21367;51.930;8.112;2023-11-19T15:27:38;38.30;;;4.22;;
35223;SDS011;21367;51.930;8.112;2023-11-19T15:32:42;34.13;;;4.28;;
35223;SDS011;21367;51.930;8.112;2023-11-19T15:37:45;44.22;;;4.30;;
35223;SDS011;21367;51.930;8.112;2023-11-19T15:42:52;25.08;;;4.22;;
35223;SDS011;21367;51.930;8.112;2023-11-19T15:47:57;34.45;;;5.18;;
35223;SDS011;21367;51.930;8.112;2023-11-19T15:53:01;35.92;;;4.50;;
35223;SDS011;21367;51.930;8.112;2023-11-19T15:58:08;45.03;;;5.50;;
35223;SDS011;21367;51.930;8.112;2023-11-19T16:08:15;35.47;;;5.85;;
35223;SDS011;21367;51.930;8.112;2023-11-19T16:13:22;31.50;;;5.28;;
35223;SDS011;21367;51.930;8.112;2023-11-19T16:18:25;69.47;;;16.63;;
35223;SDS011;21367;51.930;8.112;2023-11-19T16:23:29;45.65;;;8.45;;
35223;SDS011;21367;51.930;8.112;2023-11-19T16:28:35;46.35;;;10.52;;
35223;SDS011;21367;51.930;8.112;2023-11-19T16:38:42;36.42;;;6.72;;
35223;SDS011;21367;51.930;8.112;2023-11-19T16:43:50;32.70;;;5.80;;
35223;SDS011;21367;51.930;8.112;2023-11-19T16:48:56;40.80;;;6.82;;
35223;SDS011;21367;51.930;8.112;2023-11-19T16:53:59;36.38;;;4.22;;
35223;SDS011;21367;51.930;8.112;2023-11-19T16:59:06;34.72;;;5.40;;
35223;SDS011;21367;51.930;8.112;2023-11-19T17:09:13;34.42;;;4.78;;
35223;SDS011;21367;51.930;8.112;2023-11-19T17:14:20;32.13;;;5.40;;
35223;SDS011;21367;51.930;8.112;2023-11-19T17:24:27;26.05;;;5.00;;
35223;SDS011;21367;51.930;8.112;2023-11-19T17:29:34;27.67;;;5.28;;
35223;SDS011;21367;51.930;8.112;2023-11-19T17:34:38;38.88;;;5.60;;
35223;SDS011;21367;51.930;8.112;2023-11-19T17:39:41;37.95;;;5.40;;
35223;SDS011;21367;51.930;8.112;2023-11-19T17:44:48;38.63;;;6.63;;
35223;SDS011;21367;51.930;8.112;2023-11-19T17:49:53;46.00;;;10.02;;
35223;SDS011;21367;51.930;8.112;2023-11-19T17:54:57;33.53;;;7.97;;
35223;SDS011;21367;51.930;8.112;2023-11-19T18:00:04;39.65;;;5.72;;
35223;SDS011;21367;51.930;8.112;2023-11-19T18:05:13;46.85;;;6.20;;
35223;SDS011;21367;51.930;8.112;2023-11-19T18:10:18;43.20;;;4.68;;
35223;SDS011;21367;51.930;8.112;2023-11-19T18:15:24;45.00;;;6.60;;
35223;SDS011;21367;51.930;8.112;2023-11-19T18:20:27;36.88;;;6.10;;
35223;SDS011;21367;51.930;8.112;2023-11-19T18:25:31;33.80;;;7.88;;
35223;SDS011;21367;51.930;8.112;2023-11-19T18:30:38;36.97;;;5.57;;
35223;SDS011;21367;51.930;8.112;2023-11-19T18:40:45;31.95;;;5.53;;
35223;SDS011;21367;51.930;8.112;2023-11-19T18:45:52;33.85;;;5.05;;
35223;SDS011;21367;51.930;8.112;2023-11-19T18:50:56;32.33;;;5.50;;
35223;SDS011;21367;51.930;8.112;2023-11-19T18:56:01;38.05;;;5.22;;
35223;SDS011;21367;51.930;8.112;2023-11-19T19:01:09;30.33;;;5.50;;
35223;SDS011;21367;51.930;8.112;2023-11-19T19:06:14;24.42;;;5.70;;
35223;SDS011;21367;51.930;8.112;2023-11-19T19:11:18;36.17;;;6.20;;
35223;SDS011;21367;51.930;8.112;2023-11-19T19:16:24;34.70;;;6.70;;
35223;SDS011;21367;51.930;8.112;2023-11-19T19:21:29;30.02;;;8.25;;
35223;SDS011;21367;51.930;8.112;2023-11-19T19:26:33;37.53;;;6.88;;
35223;SDS011;21367;51.930;8.112;2023-11-19T19:31:39;26.27;;;5.18;;
35223;SDS011;21367;51.930;8.112;2023-11-19T19:36:43;28.75;;;7.20;;
35223;SDS011;21367;51.930;8.112;2023-11-19T19:41:47;32.13;;;6.35;;
35223;SDS011;21367;51.930;8.112;2023-11-19T19:46:53;30.65;;;6.68;;
35223;SDS011;21367;51.930;8.112;2023-11-19T19:51:57;29.23;;;6.78;;
35223;SDS011;21367;51.930;8.112;2023-11-19T19:57:01;36.72;;;8.60;;
35223;SDS011;21367;51.930;8.112;2023-11-19T20:02:07;31.40;;;8.13;;
35223;SDS011;21367;51.930;8.112;2023-11-19T20:07:11;29.92;;;9.25;;
35223;SDS011;21367;51.930;8.112;2023-11-19T20:12:15;39.38;;;8.20;;
35223;SDS011;21367;51.930;8.112;2023-11-19T20:18:21;32.80;;;7.72;;
35223;SDS011;21367;51.930;8.112;2023-11-19T20:24:23;32.22;;;7.88;;
35223;SDS011;21367;51.930;8.112;2023-11-19T20:30:25;35.95;;;7.45;;
35223;SDS011;21367;51.930;8.112;2023-11-19T20:36:30;23.48;;;7.30;;
35223;SDS011;21367;51.930;8.112;2023-11-19T20:42:33;11.05;;;4.50;;
35223;SDS011;21367;51.930;8.112;2023-11-19T20:48:35;19.45;;;6.60;;
35223;SDS011;21367;51.930;8.112;2023-11-19T20:54:40;25.23;;;7.47;;
35223;SDS011;21367;51.930;8.112;2023-11-19T21:00:45;18.48;;;7.35;;
35223;SDS011;21367;51.930;8.112;2023-11-19T21:06:47;18.45;;;6.65;;
35223;SDS011;21367;51.930;8.112;2023-11-19T21:12:52;14.35;;;5.13;;
35223;SDS011;21367;51.930;8.112;2023-11-19T21:18:54;12.52;;;5.25;;
35223;SDS011;21367;51.930;8.112;2023-11-19T21:24:56;11.55;;;5.90;;
35223;SDS011;21367;51.930;8.112;2023-11-19T21:31:02;14.13;;;5.65;;
35223;SDS011;21367;51.930;8.112;2023-11-19T21:37:04;13.75;;;5.57;;
35223;SDS011;21367;51.930;8.112;2023-11-19T21:43:06;11.98;;;5.53;;
35223;SDS011;21367;51.930;8.112;2023-11-19T21:49:10;13.95;;;4.63;;
35223;SDS011;21367;51.930;8.112;2023-11-19T21:55:13;11.15;;;3.75;;
35223;SDS011;21367;51.930;8.112;2023-11-19T22:01:17;11.48;;;4.35;;
35223;SDS011;21367;51.930;8.112;2023-11-19T22:07:22;9.55;;;4.40;;
35223;SDS011;21367;51.930;8.112;2023-11-19T22:13:24;8.00;;;4.60;;
35223;SDS011;21367;51.930;8.112;2023-11-19T22:19:26;11.82;;;5.18;;
35223;SDS011;21367;51.930;8.112;2023-11-19T22:25:31;11.18;;;4.70;;
35223;SDS011;21367;51.930;8.112;2023-11-19T22:31:33;9.02;;;4.18;;
35223;SDS011;21367;51.930;8.112;2023-11-19T22:37:35;11.32;;;4.93;;
35223;SDS011;21367;51.930;8.112;2023-11-19T22:43:40;8.32;;;4.45;;
35223;SDS011;21367;51.930;8.112;2023-11-19T22:49:42;16.77;;;4.88;;
35223;SDS011;21367;51.930;8.112;2023-11-19T22:55:46;11.73;;;5.28;;
35223;SDS011;21367;51.930;8.112;2023-11-19T23:01:50;18.77;;;6.60;;
35223;SDS011;21367;51.930;8.112;2023-11-19T23:07:52;19.90;;;6.85;;
35223;SDS011;21367;51.930;8.112;2023-11-19T23:13:55;23.20;;;7.70;;
35223;SDS011;21367;51.930;8.112;2023-11-19T23:20:02;17.73;;;6.80;;
35223;SDS011;21367;51.930;8.112;2023-11-19T23:26:05;13.88;;;6.57;;
35223;SDS011;21367;51.930;8.112;2023-11-19T23:32:10;16.95;;;6.97;;
35223;SDS011;21367;51.930;8.112;2023-11-19T23:38:14;18.55;;;5.78;;
35223;SDS011;21367;51.930;8.112;2023-11-19T23:44:17;13.85;;;5.15;;
35223;SDS011;21367;51.930;8.112;2023-11-19T23:50:19;14.85;;;5.55;;
35223;SDS011;21367;51.930;8.112;2023-11-19T23:56:25;18.55;;;5.63;;
